sensor_id;sensor_type;location;lat;lon;timestamp;pressure;altitude;pressure_sealevel;temperature;humidity
75895;BME280;64573;50.328;15.014;2024-03-02T00:00:35;97941.28;;;15.52;100.00
75895;BME280;64573;50.328;15.014;2024-03-02T00:03:01;97945.06;;;16.03;100.00
75895;BME280;64573;50.328;15.014;2024-03-02T00:05:27;97943.44;;;15.90;100.00
75895;BME280;64573;50.328;15.014;2024-03-02T00:07:54;97936.22;;;15.79;100.00
75895;BME280;64573;50.328;15.014;2024-03-02T00:10:23;97946.53;;;16.11;100.00
75895;BME280;64573;50.328;15.014;2024-03-02T00:12:54;97949.03;;;16.00;100.00
75895;BME280;64573;50.328;15.014;2024-03-02T00:15:42;97948.41;;;16.39;100.00
75895;BME280;64573;50.328;15.014;2024-03-02T00:18:12;97938.88;;;16.36;100.00
75895;BME280;64573;50.328;15.014;2024-03-02T00:20:38;97946.16;;;15.90;100.00
75895;BME280;64573;50.328;15.014;2024-03-02T00:23:05;97943.69;;;16.17;100.00
75895;BME280;64573;50.328;15.014;2024-03-02T00:25:44;97945.22;;;15.85;100.00
75895;BME280;64573;50.328;15.014;2024-03-02T00:33:31;97947.06;;;15.96;100.00
75895;BME280;64573;50.328;15.014;2024-03-02T00:35:57;97945.75;;;16.27;100.00
75895;BME280;64573;50.328;15.014;2024-03-02T00:38:24;97941.06;;;15.54;100.00
75895;BME280;64573;50.328;15.014;2024-03-02T00:40:49;97944.00;;;15.52;100.00
75895;BME280;64573;50.328;15.014;2024-03-02T00:43:45;97945.47;;;15.83;100.00
75895;BME280;64573;50.328;15.014;2024-03-02T00:46:12;97945.75;;;16.27;100.00
75895;BME280;64573;50.328;15.014;2024-03-02T00:48:47;97947.47;;;15.88;100.00
75895;BME280;64573;50.328;15.014;2024-03-02T00:51:13;97953.75;;;15.65;100.00
75895;BME280;64573;50.328;15.014;2024-03-02T00:53:38;97953.81;;;15.82;100.00
75895;BME280;64573;50.328;15.014;2024-03-02T00:56:04;97955.72;;;15.81;100.00
75895;BME280;64573;50.328;15.014;2024-03-02T00:58:34;97959.72;;;16.07;100.00
75895;BME280;64573;50.328;15.014;2024-03-02T01:00:59;97953.97;;;16.04;100.00
75895;BME280;64573;50.328;15.014;2024-03-02T01:03:24;97952.25;;;15.97;100.00
75895;BME280;64573;50.328;15.014;2024-03-02T01:05:50;97957.50;;;15.64;100.00
75895;BME280;64573;50.328;15.014;2024-03-02T01:08:15;97949.06;;;15.25;100.00
75895;BME280;64573;50.328;15.014;2024-03-02T01:10:40;97952.44;;;15.56;100.00
75895;BME280;64573;50.328;15.014;2024-03-02T01:13:06;97957.22;;;15.89;100.00
75895;BME280;64573;50.328;15.014;2024-03-02T01:15:31;97952.44;;;15.56;100.00
75895;BME280;64573;50.328;15.014;2024-03-02T01:17:57;97948.91;;;16.07;100.00
75895;BME280;64573;50.328;15.014;2024-03-02T01:20:23;97954.09;;;16.09;100.00
75895;BME280;64573;50.328;15.014;2024-03-02T01:22:49;97947.53;;;15.64;100.00
75895;BME280;64573;50.328;15.014;2024-03-02T01:25:14;97952.19;;;15.81;100.00
75895;BME280;64573;50.328;15.014;2024-03-02T01:27:39;97944.09;;;16.09;100.00
75895;BME280;64573;50.328;15.014;2024-03-02T01:30:06;97951.19;;;15.98;100.00
75895;BME280;64573;50.328;15.014;2024-03-02T01:32:31;97939.50;;;15.81;100.00
75895;BME280;64573;50.328;15.014;2024-03-02T01:34:56;97943.19;;;16.20;100.00
75895;BME280;64573;50.328;15.014;2024-03-02T01:37:22;97943.47;;;15.79;100.00
75895;BME280;64573;50.328;15.014;2024-03-02T01:39:47;97935.22;;;16.42;99.71
75895;BME280;64573;50.328;15.014;2024-03-02T01:42:12;97942.19;;;15.81;100.00
75895;BME280;64573;50.328;15.014;2024-03-02T01:44:40;97949.16;;;16.06;100.00
75895;BME280;64573;50.328;15.014;2024-03-02T01:47:05;97939.22;;;15.94;100.00
75895;BME280;64573;50.328;15.014;2024-03-02T01:49:30;97944.41;;;16.13;99.37
75895;BME280;64573;50.328;15.014;2024-03-02T01:51:58;97945.72;;;16.39;98.68
75895;BME280;64573;50.328;15.014;2024-03-02T01:54:23;97943.34;;;15.85;99.43
75895;BME280;64573;50.328;15.014;2024-03-02T01:56:48;97946.72;;;16.21;99.54
75895;BME280;64573;50.328;15.014;2024-03-02T01:59:14;97937.94;;;16.14;98.16
75895;BME280;64573;50.328;15.014;2024-03-02T02:01:39;97938.19;;;15.84;99.56
75895;BME280;64573;50.328;15.014;2024-03-02T02:04:04;97936.88;;;16.15;98.80
75895;BME280;64573;50.328;15.014;2024-03-02T02:06:32;97940.88;;;15.84;100.00
75895;BME280;64573;50.328;15.014;2024-03-02T02:08:57;97947.53;;;15.93;100.00
75895;BME280;64573;50.328;15.014;2024-03-02T02:11:23;97943.63;;;15.72;100.00
75895;BME280;64573;50.328;15.014;2024-03-02T02:13:48;97939.34;;;15.88;100.00
75895;BME280;64573;50.328;15.014;2024-03-02T02:16:14;97945.06;;;16.03;97.51
75895;BME280;64573;50.328;15.014;2024-03-02T02:18:39;97942.94;;;15.65;100.00
75895;BME280;64573;50.328;15.014;2024-03-02T02:21:04;97938.91;;;15.79;99.65
75895;BME280;64573;50.328;15.014;2024-03-02T02:23:30;97941.53;;;16.31;97.94
75895;BME280;64573;50.328;15.014;2024-03-02T02:25:55;97936.16;;;16.19;96.23
75895;BME280;64573;50.328;15.014;2024-03-02T02:28:21;97939.28;;;15.99;98.19
75895;BME280;64573;50.328;15.014;2024-03-02T02:30:46;97942.81;;;16.00;97.76
75895;BME280;64573;50.328;15.014;2024-03-02T02:33:11;97939.28;;;16.28;97.11
75895;BME280;64573;50.328;15.014;2024-03-02T02:35:37;97936.25;;;15.96;96.33
75895;BME280;64573;50.328;15.014;2024-03-02T02:38:03;97935.66;;;16.68;94.55
75895;BME280;64573;50.328;15.014;2024-03-02T02:40:28;97925.78;;;16.45;94.94
75895;BME280;64573;50.328;15.014;2024-03-02T02:42:57;97932.34;;;16.32;95.87
75895;BME280;64573;50.328;15.014;2024-03-02T02:45:23;97940.72;;;16.02;95.97
75895;BME280;64573;50.328;15.014;2024-03-02T02:47:48;97931.97;;;16.28;94.52
75895;BME280;64573;50.328;15.014;2024-03-02T02:50:14;97925.91;;;16.21;94.47
75895;BME280;64573;50.328;15.014;2024-03-02T02:52:41;97928.97;;;16.25;94.14
75895;BME280;64573;50.328;15.014;2024-03-02T02:55:11;97928.72;;;16.43;93.58
75895;BME280;64573;50.328;15.014;2024-03-02T02:57:38;97925.94;;;16.38;92.87
75895;BME280;64573;50.328;15.014;2024-03-02T03:00:06;97930.19;;;16.34;92.56
75895;BME280;64573;50.328;15.014;2024-03-02T03:02:38;97936.16;;;15.91;94.96
75895;BME280;64573;50.328;15.014;2024-03-02T03:05:08;97931.78;;;15.50;96.96
75895;BME280;64573;50.328;15.014;2024-03-02T03:07:34;97927.38;;;16.12;95.03
75895;BME280;64573;50.328;15.014;2024-03-02T03:10:00;97925.00;;;15.87;94.24
75895;BME280;64573;50.328;15.014;2024-03-02T03:12:26;97928.69;;;15.69;95.14
75895;BME280;64573;50.328;15.014;2024-03-02T03:14:51;97931.97;;;15.71;95.72
75895;BME280;64573;50.328;15.014;2024-03-02T03:17:17;97929.59;;;16.15;92.63
75895;BME280;64573;50.328;15.014;2024-03-02T03:22:11;97936.94;;;15.63;94.62
75895;BME280;64573;50.328;15.014;2024-03-02T03:24:37;97943.22;;;15.16;96.41
75895;BME280;64573;50.328;15.014;2024-03-02T03:27:02;97940.72;;;15.62;94.22
75895;BME280;64573;50.328;15.014;2024-03-02T03:29:28;97948.25;;;15.25;95.00
75895;BME280;64573;50.328;15.014;2024-03-02T03:31:53;97944.31;;;15.79;92.99
75895;BME280;64573;50.328;15.014;2024-03-02T03:34:18;97944.00;;;15.64;93.30
75895;BME280;64573;50.328;15.014;2024-03-02T03:36:43;97950.56;;;15.56;93.79
75895;BME280;64573;50.328;15.014;2024-03-02T03:39:09;97948.81;;;16.02;91.13
75895;BME280;64573;50.328;15.014;2024-03-02T03:41:34;97953.03;;;15.69;91.40
75895;BME280;64573;50.328;15.014;2024-03-02T03:44:00;97949.06;;;15.37;91.64
75895;BME280;64573;50.328;15.014;2024-03-02T03:46:25;97950.38;;;15.23;93.81
75895;BME280;64573;50.328;15.014;2024-03-02T03:48:51;97950.63;;;15.09;94.45
75895;BME280;64573;50.328;15.014;2024-03-02T03:51:16;97945.50;;;15.60;92.29
75895;BME280;64573;50.328;15.014;2024-03-02T03:53:41;97946.00;;;15.33;91.25
75895;BME280;64573;50.328;15.014;2024-03-02T03:56:07;97947.63;;;15.69;91.02
75895;BME280;64573;50.328;15.014;2024-03-02T03:58:32;97958.69;;;15.68;89.94
75895;BME280;64573;50.328;15.014;2024-03-02T04:00:57;97952.16;;;15.17;91.74
75895;BME280;64573;50.328;15.014;2024-03-02T04:03:23;97954.50;;;15.89;89.66
75895;BME280;64573;50.328;15.014;2024-03-02T04:05:48;97958.28;;;15.88;88.89
75895;BME280;64573;50.328;15.014;2024-03-02T04:08:13;97960.97;;;15.88;88.71
75895;BME280;64573;50.328;15.014;2024-03-02T04:10:39;97961.16;;;15.46;90.90
75895;BME280;64573;50.328;15.014;2024-03-02T04:13:05;97963.00;;;15.81;89.89
75895;BME280;64573;50.328;15.014;2024-03-02T04:15:31;97965.75;;;15.57;90.52
75895;BME280;64573;50.328;15.014;2024-03-02T04:17:56;97968.56;;;15.62;89.65
75895;BME280;64573;50.328;15.014;2024-03-02T04:20:21;97974.75;;;15.86;89.33
75895;BME280;64573;50.328;15.014;2024-03-02T04:22:47;97969.22;;;15.81;88.58
75895;BME280;64573;50.328;15.014;2024-03-02T04:25:12;97971.28;;;15.04;91.38
75895;BME280;64573;50.328;15.014;2024-03-02T04:27:37;97974.78;;;15.63;91.63
75895;BME280;64573;50.328;15.014;2024-03-02T04:30:04;97977.81;;;15.78;89.40
75895;BME280;64573;50.328;15.014;2024-03-02T04:32:30;97986.91;;;16.00;88.94
75895;BME280;64573;50.328;15.014;2024-03-02T04:34:56;97987.31;;;16.21;87.11
75895;BME280;64573;50.328;15.014;2024-03-02T04:37:22;97978.06;;;15.41;91.54
75895;BME280;64573;50.328;15.014;2024-03-02T04:39:47;97985.25;;;15.36;92.33
75895;BME280;64573;50.328;15.014;2024-03-02T04:42:12;97980.78;;;15.30;94.08
75895;BME280;64573;50.328;15.014;2024-03-02T04:44:38;97992.88;;;15.39;93.68
75895;BME280;64573;50.328;15.014;2024-03-02T04:47:04;97992.66;;;15.17;94.01
75895;BME280;64573;50.328;15.014;2024-03-02T04:49:29;97997.69;;;15.02;97.88
75895;BME280;64573;50.328;15.014;2024-03-02T04:51:55;98002.53;;;15.23;96.38
75895;BME280;64573;50.328;15.014;2024-03-02T04:54:20;98002.41;;;15.65;94.67
75895;BME280;64573;50.328;15.014;2024-03-02T04:56:46;98002.75;;;15.45;93.61
75895;BME280;64573;50.328;15.014;2024-03-02T04:59:17;98006.03;;;15.24;94.69
75895;BME280;64573;50.328;15.014;2024-03-02T05:01:43;98005.56;;;15.50;94.21
75895;BME280;64573;50.328;15.014;2024-03-02T05:04:09;98006.50;;;15.67;93.39
75895;BME280;64573;50.328;15.014;2024-03-02T05:06:39;97994.94;;;15.84;91.79
75895;BME280;64573;50.328;15.014;2024-03-02T05:09:08;98006.84;;;15.48;92.58
75895;BME280;64573;50.328;15.014;2024-03-02T05:11:34;98003.56;;;15.34;92.59
75895;BME280;64573;50.328;15.014;2024-03-02T05:14:06;98007.50;;;14.84;98.18
75895;BME280;64573;50.328;15.014;2024-03-02T05:16:35;98010.28;;;15.08;96.57
75895;BME280;64573;50.328;15.014;2024-03-02T05:19:02;98002.72;;;14.98;96.81
75895;BME280;64573;50.328;15.014;2024-03-02T05:21:27;98012.00;;;14.90;98.28
75895;BME280;64573;50.328;15.014;2024-03-02T05:23:52;98003.50;;;14.64;98.73
75895;BME280;64573;50.328;15.014;2024-03-02T05:26:18;98011.13;;;14.67;100.00
75895;BME280;64573;50.328;15.014;2024-03-02T05:28:43;98013.69;;;15.38;95.83
75895;BME280;64573;50.328;15.014;2024-03-02T05:31:15;98022.00;;;15.49;94.29
75895;BME280;64573;50.328;15.014;2024-03-02T05:33:40;98021.19;;;15.25;95.17
75895;BME280;64573;50.328;15.014;2024-03-02T05:36:06;98025.63;;;15.19;95.22
75895;BME280;64573;50.328;15.014;2024-03-02T05:38:34;98034.22;;;14.62;96.84
75895;BME280;64573;50.328;15.014;2024-03-02T05:40:59;98024.13;;;15.47;94.05
75895;BME280;64573;50.328;15.014;2024-03-02T05:43:25;98025.31;;;15.62;91.91
75895;BME280;64573;50.328;15.014;2024-03-02T05:45:50;98020.25;;;15.07;93.72
75895;BME280;64573;50.328;15.014;2024-03-02T05:48:15;98030.53;;;14.87;96.96
75895;BME280;64573;50.328;15.014;2024-03-02T05:50:41;98027.91;;;15.57;92.89
75895;BME280;64573;50.328;15.014;2024-03-02T05:53:06;98024.69;;;15.95;90.17
75895;BME280;64573;50.328;15.014;2024-03-02T05:55:32;98027.44;;;15.72;90.27
75895;BME280;64573;50.328;15.014;2024-03-02T05:57:58;98029.66;;;15.75;89.28
75895;BME280;64573;50.328;15.014;2024-03-02T06:00:23;98035.06;;;15.28;91.14
75895;BME280;64573;50.328;15.014;2024-03-02T06:02:48;98029.75;;;15.10;92.59
75895;BME280;64573;50.328;15.014;2024-03-02T06:05:14;98048.28;;;14.95;93.81
75895;BME280;64573;50.328;15.014;2024-03-02T06:07:40;98040.41;;;15.05;93.16
75895;BME280;64573;50.328;15.014;2024-03-02T06:10:06;98042.19;;;15.11;93.25
75895;BME280;64573;50.328;15.014;2024-03-02T06:12:34;98049.84;;;15.26;91.82
75895;BME280;64573;50.328;15.014;2024-03-02T06:14:59;98039.50;;;15.23;91.14
75895;BME280;64573;50.328;15.014;2024-03-02T06:17:24;98043.50;;;15.20;89.98
75895;BME280;64573;50.328;15.014;2024-03-02T06:19:50;98046.53;;;15.12;91.37
75895;BME280;64573;50.328;15.014;2024-03-02T06:22:15;98049.16;;;14.77;92.99
75895;BME280;64573;50.328;15.014;2024-03-02T06:24:40;98045.88;;;14.75;93.48
75895;BME280;64573;50.328;15.014;2024-03-02T06:27:06;98050.59;;;14.79;93.38
75895;BME280;64573;50.328;15.014;2024-03-02T06:29:34;98056.97;;;14.85;93.30
75895;BME280;64573;50.328;15.014;2024-03-02T06:31:59;98064.44;;;14.71;94.36
75895;BME280;64573;50.328;15.014;2024-03-02T06:34:25;98064.50;;;14.65;95.11
75895;BME280;64573;50.328;15.014;2024-03-02T06:36:50;98067.91;;;14.42;97.16
75895;BME280;64573;50.328;15.014;2024-03-02T06:39:16;98065.31;;;14.35;97.55
75895;BME280;64573;50.328;15.014;2024-03-02T06:41:41;98073.66;;;14.45;98.90
75895;BME280;64573;50.328;15.014;2024-03-02T06:44:07;98080.84;;;14.21;98.95
75895;BME280;64573;50.328;15.014;2024-03-02T06:46:33;98085.00;;;14.54;97.22
75895;BME280;64573;50.328;15.014;2024-03-02T06:48:58;98091.00;;;14.38;98.05
75895;BME280;64573;50.328;15.014;2024-03-02T06:51:23;98086.72;;;14.48;96.55
75895;BME280;64573;50.328;15.014;2024-03-02T06:53:49;98093.03;;;14.42;96.24
75895;BME280;64573;50.328;15.014;2024-03-02T06:56:14;98101.56;;;14.57;96.16
75895;BME280;64573;50.328;15.014;2024-03-02T06:58:40;98098.41;;;14.42;96.85
75895;BME280;64573;50.328;15.014;2024-03-02T07:01:05;98103.34;;;14.64;95.66
75895;BME280;64573;50.328;15.014;2024-03-02T07:03:30;98106.34;;;14.37;97.03
75895;BME280;64573;50.328;15.014;2024-03-02T07:05:57;98103.34;;;14.64;95.90
75895;BME280;64573;50.328;15.014;2024-03-02T07:08:22;98109.88;;;14.56;95.75
75895;BME280;64573;50.328;15.014;2024-03-02T07:10:47;98116.25;;;14.43;95.18
75895;BME280;64573;50.328;15.014;2024-03-02T07:13:13;98113.22;;;15.11;93.22
75895;BME280;64573;50.328;15.014;2024-03-02T07:15:38;98123.59;;;14.84;91.90
75895;BME280;64573;50.328;15.014;2024-03-02T07:18:22;98113.31;;;14.93;92.12
75895;BME280;64573;50.328;15.014;2024-03-02T07:20:47;98120.13;;;15.61;89.17
75895;BME280;64573;50.328;15.014;2024-03-02T07:23:15;98125.31;;;15.86;86.92
75895;BME280;64573;50.328;15.014;2024-03-02T07:25:40;98117.78;;;16.11;85.47
75895;BME280;64573;50.328;15.014;2024-03-02T07:28:06;98115.44;;;16.43;83.47
75895;BME280;64573;50.328;15.014;2024-03-02T07:30:32;98115.03;;;16.63;82.28
75895;BME280;64573;50.328;15.014;2024-03-02T07:32:59;98111.84;;;16.78;80.85
75895;BME280;64573;50.328;15.014;2024-03-02T07:35:24;98108.81;;;16.63;80.22
75895;BME280;64573;50.328;15.014;2024-03-02T07:37:53;98108.50;;;16.88;78.50
75895;BME280;64573;50.328;15.014;2024-03-02T07:40:19;98108.94;;;16.96;78.32
75895;BME280;64573;50.328;15.014;2024-03-02T07:42:45;98117.84;;;17.25;78.05
75895;BME280;64573;50.328;15.014;2024-03-02T07:45:10;98119.56;;;17.31;76.68
75895;BME280;64573;50.328;15.014;2024-03-02T07:47:36;98112.34;;;16.63;77.80
75895;BME280;64573;50.328;15.014;2024-03-02T07:50:02;98116.88;;;16.46;78.12
75895;BME280;64573;50.328;15.014;2024-03-02T07:52:28;98112.72;;;17.12;76.73
75895;BME280;64573;50.328;15.014;2024-03-02T07:57:23;98125.69;;;17.10;75.08
75895;BME280;64573;50.328;15.014;2024-03-02T07:59:48;98123.81;;;17.44;73.98
75895;BME280;64573;50.328;15.014;2024-03-02T08:02:14;98123.69;;;17.68;73.38
75895;BME280;64573;50.328;15.014;2024-03-02T08:04:40;98122.53;;;17.80;71.79
75895;BME280;64573;50.328;15.014;2024-03-02T08:07:06;98131.00;;;17.84;71.95
75895;BME280;64573;50.328;15.014;2024-03-02T08:09:31;98128.63;;;18.09;71.19
75895;BME280;64573;50.328;15.014;2024-03-02T08:11:57;98137.25;;;18.45;69.69
75895;BME280;64573;50.328;15.014;2024-03-02T08:14:23;98131.53;;;18.41;69.23
75895;BME280;64573;50.328;15.014;2024-03-02T08:16:49;98134.03;;;18.26;69.95
75895;BME280;64573;50.328;15.014;2024-03-02T08:19:14;98142.56;;;17.96;69.73
75895;BME280;64573;50.328;15.014;2024-03-02T08:21:40;98134.66;;;18.11;70.51
75895;BME280;64573;50.328;15.014;2024-03-02T08:24:06;98125.00;;;18.42;68.77
75895;BME280;64573;50.328;15.014;2024-03-02T08:26:31;98135.63;;;18.44;68.47
75895;BME280;64573;50.328;15.014;2024-03-02T08:28:58;98135.50;;;18.56;67.06
75895;BME280;64573;50.328;15.014;2024-03-02T08:31:24;98133.09;;;18.59;67.79
75895;BME280;64573;50.328;15.014;2024-03-02T08:33:49;98136.53;;;18.71;66.46
75895;BME280;64573;50.328;15.014;2024-03-02T08:36:14;98141.38;;;18.48;66.60
75895;BME280;64573;50.328;15.014;2024-03-02T08:38:40;98142.22;;;18.70;66.83
75895;BME280;64573;50.328;15.014;2024-03-02T08:41:06;98140.94;;;18.34;66.28
75895;BME280;64573;50.328;15.014;2024-03-02T08:43:32;98144.47;;;17.79;67.45
75895;BME280;64573;50.328;15.014;2024-03-02T08:45:58;98148.81;;;18.35;67.32
75895;BME280;64573;50.328;15.014;2024-03-02T08:48:23;98138.66;;;18.91;66.00
75895;BME280;64573;50.328;15.014;2024-03-02T08:50:49;98143.78;;;19.47;64.24
75895;BME280;64573;50.328;15.014;2024-03-02T08:53:14;98146.94;;;19.61;62.38
75895;BME280;64573;50.328;15.014;2024-03-02T08:55:45;98147.19;;;19.32;63.28
75895;BME280;64573;50.328;15.014;2024-03-02T08:58:10;98144.69;;;19.25;62.94
75895;BME280;64573;50.328;15.014;2024-03-02T09:00:35;98133.28;;;19.55;62.71
75895;BME280;64573;50.328;15.014;2024-03-02T09:03:01;98141.97;;;19.25;61.99
75895;BME280;64573;50.328;15.014;2024-03-02T09:05:26;98146.03;;;19.55;60.85
75895;BME280;64573;50.328;15.014;2024-03-02T09:07:51;98139.91;;;19.65;59.64
75895;BME280;64573;50.328;15.014;2024-03-02T09:10:17;98139.69;;;19.44;60.74
75895;BME280;64573;50.328;15.014;2024-03-02T09:12:42;98136.53;;;19.90;59.58
75895;BME280;64573;50.328;15.014;2024-03-02T09:15:08;98145.41;;;20.17;58.66
75895;BME280;64573;50.328;15.014;2024-03-02T09:17:34;98139.69;;;20.14;57.36
75895;BME280;64573;50.328;15.014;2024-03-02T09:19:59;98144.00;;;20.09;57.58
75895;BME280;64573;50.328;15.014;2024-03-02T09:22:24;98146.81;;;19.77;56.49
75895;BME280;64573;50.328;15.014;2024-03-02T09:24:50;98138.81;;;20.50;57.38
75895;BME280;64573;50.328;15.014;2024-03-02T09:27:15;98143.00;;;20.26;57.60
75895;BME280;64573;50.328;15.014;2024-03-02T09:29:40;98140.38;;;19.94;56.58
75895;BME280;64573;50.328;15.014;2024-03-02T09:32:08;98151.66;;;18.67;60.67
75895;BME280;64573;50.328;15.014;2024-03-02T09:34:33;98150.78;;;18.40;64.34
75895;BME280;64573;50.328;15.014;2024-03-02T09:36:59;98145.22;;;19.87;59.67
75895;BME280;64573;50.328;15.014;2024-03-02T09:39:24;98155.66;;;19.36;57.80
75895;BME280;64573;50.328;15.014;2024-03-02T09:41:53;98146.56;;;19.52;56.95
75895;BME280;64573;50.328;15.014;2024-03-02T09:44:18;98149.53;;;19.77;56.82
75895;BME280;64573;50.328;15.014;2024-03-02T09:46:48;98145.47;;;20.22;55.63
75895;BME280;64573;50.328;15.014;2024-03-02T09:49:14;98141.88;;;19.47;57.28
75895;BME280;64573;50.328;15.014;2024-03-02T09:51:40;98146.22;;;19.75;56.74
75895;BME280;64573;50.328;15.014;2024-03-02T09:54:07;98141.69;;;20.33;54.41
75895;BME280;64573;50.328;15.014;2024-03-02T09:56:33;98147.50;;;21.35;53.03
75895;BME280;64573;50.328;15.014;2024-03-02T09:58:59;98137.09;;;21.12;52.95
75895;BME280;64573;50.328;15.014;2024-03-02T10:01:24;98135.91;;;20.72;53.09
75895;BME280;64573;50.328;15.014;2024-03-02T10:03:50;98133.00;;;19.89;54.50
75895;BME280;64573;50.328;15.014;2024-03-02T10:08:44;98140.56;;;19.82;55.09
75895;BME280;64573;50.328;15.014;2024-03-02T10:11:10;98154.06;;;19.67;55.35
75895;BME280;64573;50.328;15.014;2024-03-02T10:13:36;98147.38;;;19.52;56.29
75895;BME280;64573;50.328;15.014;2024-03-02T10:16:11;98146.28;;;19.48;54.94
75895;BME280;64573;50.328;15.014;2024-03-02T10:18:37;98138.38;;;19.84;55.42
75895;BME280;64573;50.328;15.014;2024-03-02T10:21:28;98134.22;;;20.08;54.24
75895;BME280;64573;50.328;15.014;2024-03-02T10:24:06;98137.88;;;20.34;54.10
75895;BME280;64573;50.328;15.014;2024-03-02T10:26:32;98143.88;;;19.89;53.98
75895;BME280;64573;50.328;15.014;2024-03-02T10:28:57;98139.09;;;19.64;53.69
75895;BME280;64573;50.328;15.014;2024-03-02T10:31:25;98137.09;;;19.92;52.96
75895;BME280;64573;50.328;15.014;2024-03-02T10:33:54;98142.69;;;19.75;54.51
75895;BME280;64573;50.328;15.014;2024-03-02T10:36:20;98141.28;;;19.67;55.38
75895;BME280;64573;50.328;15.014;2024-03-02T10:38:46;98142.94;;;20.10;52.96
75895;BME280;64573;50.328;15.014;2024-03-02T10:41:16;98135.88;;;20.15;54.34
75895;BME280;64573;50.328;15.014;2024-03-02T10:43:42;98135.06;;;20.14;54.69
75895;BME280;64573;50.328;15.014;2024-03-02T10:46:09;98143.97;;;19.99;54.33
75895;BME280;64573;50.328;15.014;2024-03-02T10:48:36;98139.19;;;20.27;53.95
75895;BME280;64573;50.328;15.014;2024-03-02T10:51:04;98137.69;;;19.99;54.89
75895;BME280;64573;50.328;15.014;2024-03-02T10:53:30;98135.56;;;19.37;55.75
75895;BME280;64573;50.328;15.014;2024-03-02T10:55:58;98137.38;;;18.99;56.67
75895;BME280;64573;50.328;15.014;2024-03-02T10:58:31;98137.06;;;19.22;56.59
75895;BME280;64573;50.328;15.014;2024-03-02T11:01:00;98131.31;;;19.51;56.56
75895;BME280;64573;50.328;15.014;2024-03-02T11:03:29;98127.78;;;18.91;56.76
75895;BME280;64573;50.328;15.014;2024-03-02T11:05:59;98131.81;;;19.48;57.14
75895;BME280;64573;50.328;15.014;2024-03-02T11:08:26;98111.44;;;19.82;56.44
75895;BME280;64573;50.328;15.014;2024-03-02T11:11:04;98118.22;;;20.22;55.20
75895;BME280;64573;50.328;15.014;2024-03-02T11:13:32;98113.63;;;20.33;54.22
75895;BME280;64573;50.328;15.014;2024-03-02T11:16:12;98116.22;;;20.02;55.08
75895;BME280;64573;50.328;15.014;2024-03-02T11:18:41;98105.06;;;20.51;53.71
75895;BME280;64573;50.328;15.014;2024-03-02T11:21:07;98111.13;;;20.84;52.91
75895;BME280;64573;50.328;15.014;2024-03-02T11:23:34;98102.66;;;20.65;52.50
75895;BME280;64573;50.328;15.014;2024-03-02T11:26:21;98104.38;;;21.17;51.05
75895;BME280;64573;50.328;15.014;2024-03-02T11:28:47;98100.59;;;21.64;49.94
75895;BME280;64573;50.328;15.014;2024-03-02T11:31:13;98105.44;;;22.08;47.73
75895;BME280;64573;50.328;15.014;2024-03-02T11:33:38;98098.16;;;21.47;49.64
75895;BME280;64573;50.328;15.014;2024-03-02T11:36:06;98103.03;;;21.25;50.63
75895;BME280;64573;50.328;15.014;2024-03-02T11:38:33;98095.69;;;21.81;49.40
75895;BME280;64573;50.328;15.014;2024-03-02T11:41:16;98100.53;;;22.20;47.93
75895;BME280;64573;50.328;15.014;2024-03-02T11:43:43;98097.88;;;21.54;49.41
75895;BME280;64573;50.328;15.014;2024-03-02T11:46:10;98089.03;;;20.65;49.90
75895;BME280;64573;50.328;15.014;2024-03-02T11:48:36;98097.03;;;21.23;50.09
75895;BME280;64573;50.328;15.014;2024-03-02T11:51:04;98089.09;;;21.01;50.45
75895;BME280;64573;50.328;15.014;2024-03-02T11:53:30;98090.47;;;21.18;49.86
75895;BME280;64573;50.328;15.014;2024-03-02T11:55:58;98083.38;;;20.97;50.40
75895;BME280;64573;50.328;15.014;2024-03-02T11:58:24;98090.16;;;20.79;51.13
75895;BME280;64573;50.328;15.014;2024-03-02T12:00:54;98095.78;;;20.52;52.51
75895;BME280;64573;50.328;15.014;2024-03-02T12:03:22;98082.50;;;20.76;51.81
75895;BME280;64573;50.328;15.014;2024-03-02T12:05:51;98083.06;;;20.83;51.93
75895;BME280;64573;50.328;15.014;2024-03-02T12:08:17;98079.63;;;21.39;51.40
75895;BME280;64573;50.328;15.014;2024-03-02T12:10:43;98080.59;;;22.14;48.88
75895;BME280;64573;50.328;15.014;2024-03-02T12:13:10;98073.53;;;22.03;49.09
75895;BME280;64573;50.328;15.014;2024-03-02T12:15:38;98083.38;;;22.69;47.97
75895;BME280;64573;50.328;15.014;2024-03-02T12:18:04;98078.13;;;23.27;45.83
75895;BME280;64573;50.328;15.014;2024-03-02T12:20:31;98073.59;;;23.07;45.93
75895;BME280;64573;50.328;15.014;2024-03-02T12:23:01;98082.22;;;22.25;46.39
75895;BME280;64573;50.328;15.014;2024-03-02T12:25:28;98074.88;;;22.75;46.56
75895;BME280;64573;50.328;15.014;2024-03-02T12:27:55;98076.81;;;23.19;45.90
75895;BME280;64573;50.328;15.014;2024-03-02T12:30:21;98076.81;;;22.75;44.86
75895;BME280;64573;50.328;15.014;2024-03-02T12:32:47;98082.22;;;20.10;50.03
75895;BME280;64573;50.328;15.014;2024-03-02T12:35:13;98083.66;;;18.35;52.15
75895;BME280;64573;50.328;15.014;2024-03-02T12:37:46;98067.38;;;18.35;56.47
75895;BME280;64573;50.328;15.014;2024-03-02T12:40:12;98071.44;;;18.60;55.49
75895;BME280;64573;50.328;15.014;2024-03-02T12:42:41;98066.22;;;17.87;57.71
75895;BME280;64573;50.328;15.014;2024-03-02T12:45:07;98061.47;;;19.94;53.36
75895;BME280;64573;50.328;15.014;2024-03-02T12:47:34;98060.75;;;19.02;54.07
75895;BME280;64573;50.328;15.014;2024-03-02T12:50:00;98068.56;;;18.44;56.68
75895;BME280;64573;50.328;15.014;2024-03-02T12:52:25;98063.06;;;18.17;57.10
75895;BME280;64573;50.328;15.014;2024-03-02T12:54:51;98059.28;;;18.89;56.43
75895;BME280;64573;50.328;15.014;2024-03-02T12:57:20;98059.16;;;19.38;54.84